sensor_id;sensor_type;location;lat;lon;timestamp;temperature;humidity
13074;DHT22;6603;47.066;15.396;2023-05-10T00:01:33;8.50;99.90
13074;DHT22;6603;47.066;15.396;2023-05-10T00:03:59;8.50;99.90
13074;DHT22;6603;47.066;15.396;2023-05-10T00:06:25;8.30;99.90
13074;DHT22;6603;47.066;15.396;2023-05-10T00:08:51;8.50;99.90
13074;DHT22;6603;47.066;15.396;2023-05-10T00:11:17;8.40;99.90
13074;DHT22;6603;47.066;15.396;2023-05-10T00:13:43;8.40;99.90
13074;DHT22;6603;47.066;15.396;2023-05-10T00:16:09;8.40;99.90
13074;DHT22;6603;47.066;15.396;2023-05-10T00:18:35;8.20;99.90
13074;DHT22;6603;47.066;15.396;2023-05-10T00:21:01;8.00;99.90
13074;DHT22;6603;47.066;15.396;2023-05-10T00:23:27;8.20;99.90
13074;DHT22;6603;47.066;15.396;2023-05-10T00:25:53;8.10;99.90
13074;DHT22;6603;47.066;15.396;2023-05-10T00:28:19;8.20;99.90
13074;DHT22;6603;47.066;15.396;2023-05-10T00:30:45;8.00;99.90
13074;DHT22;6603;47.066;15.396;2023-05-10T00:33:11;8.10;99.90
13074;DHT22;6603;47.066;15.396;2023-05-10T00:35:37;7.90;99.90
13074;DHT22;6603;47.066;15.396;2023-05-10T00:38:03;7.90;99.90
13074;DHT22;6603;47.066;15.396;2023-05-10T00:40:29;7.80;99.90
13074;DHT22;6603;47.066;15.396;2023-05-10T00:42:57;7.80;99.90
13074;DHT22;6603;47.066;15.396;2023-05-10T00:45:24;8.00;99.90
13074;DHT22;6603;47.066;15.396;2023-05-10T00:47:51;8.10;99.90
13074;DHT22;6603;47.066;15.396;2023-05-10T00:50:21;8.00;99.90
13074;DHT22;6603;47.066;15.396;2023-05-10T00:52:48;7.90;99.90
13074;DHT22;6603;47.066;15.396;2023-05-10T00:55:15;8.00;99.90
13074;DHT22;6603;47.066;15.396;2023-05-10T00:57:41;8.00;99.90
13074;DHT22;6603;47.066;15.396;2023-05-10T01:00:08;7.80;99.90
13074;DHT22;6603;47.066;15.396;2023-05-10T01:02:35;7.60;99.90
13074;DHT22;6603;47.066;15.396;2023-05-10T01:05:02;7.50;99.90
13074;DHT22;6603;47.066;15.396;2023-05-10T01:07:31;7.70;99.90
13074;DHT22;6603;47.066;15.396;2023-05-10T01:09:57;7.80;99.90
13074;DHT22;6603;47.066;15.396;2023-05-10T01:12:24;7.50;99.90
13074;DHT22;6603;47.066;15.396;2023-05-10T01:14:49;7.70;99.90
13074;DHT22;6603;47.066;15.396;2023-05-10T01:17:16;7.70;99.90
13074;DHT22;6603;47.066;15.396;2023-05-10T01:19:43;7.70;99.90
13074;DHT22;6603;47.066;15.396;2023-05-10T01:25:31;7.10;99.90
13074;DHT22;6603;47.066;15.396;2023-05-10T01:28:22;7.20;99.90
13074;DHT22;6603;47.066;15.396;2023-05-10T01:31:03;7.30;99.90
13074;DHT22;6603;47.066;15.396;2023-05-10T01:33:46;7.20;99.90
13074;DHT22;6603;47.066;15.396;2023-05-10T01:47:09;7.50;99.90
13074;DHT22;6603;47.066;15.396;2023-05-10T01:49:49;7.20;99.90
13074;DHT22;6603;47.066;15.396;2023-05-10T01:52:18;7.30;99.90
13074;DHT22;6603;47.066;15.396;2023-05-10T01:54:59;7.20;99.90
13074;DHT22;6603;47.066;15.396;2023-05-10T01:57:35;7.40;99.90
13074;DHT22;6603;47.066;15.396;2023-05-10T02:00:03;6.90;99.90
13074;DHT22;6603;47.066;15.396;2023-05-10T02:02:35;7.20;99.90
13074;DHT22;6603;47.066;15.396;2023-05-10T02:05:05;7.20;99.90
13074;DHT22;6603;47.066;15.396;2023-05-10T02:07:33;7.10;99.90
13074;DHT22;6603;47.066;15.396;2023-05-10T02:10:02;7.00;99.90
13074;DHT22;6603;47.066;15.396;2023-05-10T02:12:31;6.90;99.90
13074;DHT22;6603;47.066;15.396;2023-05-10T02:14:59;7.10;99.90
13074;DHT22;6603;47.066;15.396;2023-05-10T02:17:28;7.10;99.90
13074;DHT22;6603;47.066;15.396;2023-05-10T02:19:57;6.80;99.90
13074;DHT22;6603;47.066;15.396;2023-05-10T02:22:25;6.70;99.90
13074;DHT22;6603;47.066;15.396;2023-05-10T02:24:54;6.70;99.90
13074;DHT22;6603;47.066;15.396;2023-05-10T02:27:21;6.60;99.90
13074;DHT22;6603;47.066;15.396;2023-05-10T02:29:50;6.70;99.90
13074;DHT22;6603;47.066;15.396;2023-05-10T02:32:18;6.90;99.90
13074;DHT22;6603;47.066;15.396;2023-05-10T02:34:45;6.80;99.90
13074;DHT22;6603;47.066;15.396;2023-05-10T02:37:19;6.80;99.90
13074;DHT22;6603;47.066;15.396;2023-05-10T02:39:50;6.50;99.90
13074;DHT22;6603;47.066;15.396;2023-05-10T02:42:19;6.40;99.90
13074;DHT22;6603;47.066;15.396;2023-05-10T02:44:49;6.60;99.90
13074;DHT22;6603;47.066;15.396;2023-05-10T02:47:17;6.80;99.90
13074;DHT22;6603;47.066;15.396;2023-05-10T02:49:43;6.70;99.90
13074;DHT22;6603;47.066;15.396;2023-05-10T02:52:10;6.50;99.90
13074;DHT22;6603;47.066;15.396;2023-05-10T02:54:44;6.60;99.90
13074;DHT22;6603;47.066;15.396;2023-05-10T02:57:20;6.60;99.90
13074;DHT22;6603;47.066;15.396;2023-05-10T02:59:49;6.50;99.90
13074;DHT22;6603;47.066;15.396;2023-05-10T03:02:14;6.60;99.90
13074;DHT22;6603;47.066;15.396;2023-05-10T03:04:40;6.60;99.90
13074;DHT22;6603;47.066;15.396;2023-05-10T03:07:07;6.80;99.90
13074;DHT22;6603;47.066;15.396;2023-05-10T03:09:34;6.60;99.90
13074;DHT22;6603;47.066;15.396;2023-05-10T03:17:48;6.40;99.90
13074;DHT22;6603;47.066;15.396;2023-05-10T03:20:42;6.60;99.90
13074;DHT22;6603;47.066;15.396;2023-05-10T03:25:45;6.40;99.90
13074;DHT22;6603;47.066;15.396;2023-05-10T03:28:14;6.60;99.90
13074;DHT22;6603;47.066;15.396;2023-05-10T03:30:42;6.80;99.90
13074;DHT22;6603;47.066;15.396;2023-05-10T03:33:09;6.50;99.90
13074;DHT22;6603;47.066;15.396;2023-05-10T03:35:36;6.30;99.90
13074;DHT22;6603;47.066;15.396;2023-05-10T03:38:02;6.30;99.90
13074;DHT22;6603;47.066;15.396;2023-05-10T03:40:28;6.50;99.90
13074;DHT22;6603;47.066;15.396;2023-05-10T03:42:57;6.60;99.90
13074;DHT22;6603;47.066;15.396;2023-05-10T03:45:23;6.40;99.90
13074;DHT22;6603;47.066;15.396;2023-05-10T03:47:49;6.50;99.90
13074;DHT22;6603;47.066;15.396;2023-05-10T03:50:15;6.70;99.90
13074;DHT22;6603;47.066;15.396;2023-05-10T03:52:41;6.60;99.90
13074;DHT22;6603;47.066;15.396;2023-05-10T03:55:07;6.40;99.90
13074;DHT22;6603;47.066;15.396;2023-05-10T03:57:34;6.60;99.90
13074;DHT22;6603;47.066;15.396;2023-05-10T04:00:00;6.50;99.90
13074;DHT22;6603;47.066;15.396;2023-05-10T04:02:26;6.70;99.90
13074;DHT22;6603;47.066;15.396;2023-05-10T04:04:51;6.50;99.90
13074;DHT22;6603;47.066;15.396;2023-05-10T04:07:17;6.30;99.90
13074;DHT22;6603;47.066;15.396;2023-05-10T04:09:43;6.50;99.90
13074;DHT22;6603;47.066;15.396;2023-05-10T04:12:09;6.70;99.90
13074;DHT22;6603;47.066;15.396;2023-05-10T04:14:35;6.80;99.90
13074;DHT22;6603;47.066;15.396;2023-05-10T04:17:01;6.60;99.90
13074;DHT22;6603;47.066;15.396;2023-05-10T04:19:31;6.80;99.90
13074;DHT22;6603;47.066;15.396;2023-05-10T04:21:57;7.00;99.90
13074;DHT22;6603;47.066;15.396;2023-05-10T04:24:24;6.90;99.90
13074;DHT22;6603;47.066;15.396;2023-05-10T04:26:50;6.90;99.90
13074;DHT22;6603;47.066;15.396;2023-05-10T04:29:16;7.10;99.90
13074;DHT22;6603;47.066;15.396;2023-05-10T04:31:42;7.00;99.90
13074;DHT22;6603;47.066;15.396;2023-05-10T04:34:08;7.00;99.90
13074;DHT22;6603;47.066;15.396;2023-05-10T04:36:34;7.10;99.90
13074;DHT22;6603;47.066;15.396;2023-05-10T04:39:03;7.50;99.90
13074;DHT22;6603;47.066;15.396;2023-05-10T04:41:29;7.70;99.90
13074;DHT22;6603;47.066;15.396;2023-05-10T04:43:55;7.70;99.90
13074;DHT22;6603;47.066;15.396;2023-05-10T04:46:21;7.60;99.90
13074;DHT22;6603;47.066;15.396;2023-05-10T04:48:47;7.80;99.90
13074;DHT22;6603;47.066;15.396;2023-05-10T04:51:13;7.70;99.90
13074;DHT22;6603;47.066;15.396;2023-05-10T04:53:39;7.80;99.90
13074;DHT22;6603;47.066;15.396;2023-05-10T04:56:05;7.90;99.90
13074;DHT22;6603;47.066;15.396;2023-05-10T04:58:32;7.80;99.90
13074;DHT22;6603;47.066;15.396;2023-05-10T05:01:05;8.00;99.90
13074;DHT22;6603;47.066;15.396;2023-05-10T05:03:32;8.10;99.90
13074;DHT22;6603;47.066;15.396;2023-05-10T05:05:59;8.20;99.90
13074;DHT22;6603;47.066;15.396;2023-05-10T05:08:25;8.20;99.90
13074;DHT22;6603;47.066;15.396;2023-05-10T05:10:50;8.30;99.90
13074;DHT22;6603;47.066;15.396;2023-05-10T05:13:16;8.50;99.90
13074;DHT22;6603;47.066;15.396;2023-05-10T05:15:42;8.60;99.90
13074;DHT22;6603;47.066;15.396;2023-05-10T05:18:08;8.70;99.90
13074;DHT22;6603;47.066;15.396;2023-05-10T05:20:33;8.90;99.90
13074;DHT22;6603;47.066;15.396;2023-05-10T05:23:00;9.00;99.90
13074;DHT22;6603;47.066;15.396;2023-05-10T05:25:26;9.20;99.90
13074;DHT22;6603;47.066;15.396;2023-05-10T05:27:52;9.30;99.90
13074;DHT22;6603;47.066;15.396;2023-05-10T05:30:17;9.50;99.90
13074;DHT22;6603;47.066;15.396;2023-05-10T05:32:43;9.60;99.90
13074;DHT22;6603;47.066;15.396;2023-05-10T05:35:09;9.80;99.90
13074;DHT22;6603;47.066;15.396;2023-05-10T05:37:35;10.00;99.90
13074;DHT22;6603;47.066;15.396;2023-05-10T05:40:01;10.10;99.90
13074;DHT22;6603;47.066;15.396;2023-05-10T05:42:27;10.30;99.90
13074;DHT22;6603;47.066;15.396;2023-05-10T05:44:53;10.50;99.90
13074;DHT22;6603;47.066;15.396;2023-05-10T05:47:19;10.40;99.90
13074;DHT22;6603;47.066;15.396;2023-05-10T05:49:44;10.40;99.90
13074;DHT22;6603;47.066;15.396;2023-05-10T05:52:13;10.30;99.90
13074;DHT22;6603;47.066;15.396;2023-05-10T05:54:39;10.40;99.90
13074;DHT22;6603;47.066;15.396;2023-05-10T05:57:05;10.50;98.80
13074;DHT22;6603;47.066;15.396;2023-05-10T05:59:31;10.60;85.60
13074;DHT22;6603;47.066;15.396;2023-05-10T06:01:57;10.70;63.00
13074;DHT22;6603;47.066;15.396;2023-05-10T06:04:23;10.70;33.40
13074;DHT22;6603;47.066;15.396;2023-05-10T06:06:49;10.70;46.00
13074;DHT22;6603;47.066;15.396;2023-05-10T06:09:15;10.80;46.10
13074;DHT22;6603;47.066;15.396;2023-05-10T06:11:41;10.90;33.70
13074;DHT22;6603;47.066;15.396;2023-05-10T06:14:07;10.90;18.60
13074;DHT22;6603;47.066;15.396;2023-05-10T06:16:34;10.90;81.20
13074;DHT22;6603;47.066;15.396;2023-05-10T06:19:00;11.00;13.10
13074;DHT22;6603;47.066;15.396;2023-05-10T06:21:26;11.10;10.20
13074;DHT22;6603;47.066;15.396;2023-05-10T06:23:52;11.20;1.00
13074;DHT22;6603;47.066;15.396;2023-05-10T06:26:17;11.20;1.00
13074;DHT22;6603;47.066;15.396;2023-05-10T06:28:43;11.30;1.00
13074;DHT22;6603;47.066;15.396;2023-05-10T06:31:09;11.40;1.00
13074;DHT22;6603;47.066;15.396;2023-05-10T06:33:36;11.50;1.00
13074;DHT22;6603;47.066;15.396;2023-05-10T06:36:03;11.60;1.00
13074;DHT22;6603;47.066;15.396;2023-05-10T06:38:29;11.70;1.00
13074;DHT22;6603;47.066;15.396;2023-05-10T06:40:55;11.80;1.00
13074;DHT22;6603;47.066;15.396;2023-05-10T06:43:21;11.90;1.00
13074;DHT22;6603;47.066;15.396;2023-05-10T06:45:48;11.90;1.00
13074;DHT22;6603;47.066;15.396;2023-05-10T06:48:14;12.00;1.00
13074;DHT22;6603;47.066;15.396;2023-05-10T06:50:39;12.10;1.00
13074;DHT22;6603;47.066;15.396;2023-05-10T06:53:05;12.10;1.00
13074;DHT22;6603;47.066;15.396;2023-05-10T06:55:31;12.20;1.00
13074;DHT22;6603;47.066;15.396;2023-05-10T06:57:56;12.30;1.00
13074;DHT22;6603;47.066;15.396;2023-05-10T07:00:22;12.30;1.00
13074;DHT22;6603;47.066;15.396;2023-05-10T07:02:48;12.40;1.00
13074;DHT22;6603;47.066;15.396;2023-05-10T07:05:14;12.50;1.00
13074;DHT22;6603;47.066;15.396;2023-05-10T07:07:40;12.80;1.00
13074;DHT22;6603;47.066;15.396;2023-05-10T07:10:07;12.80;1.00
13074;DHT22;6603;47.066;15.396;2023-05-10T07:12:33;12.90;1.00
13074;DHT22;6603;47.066;15.396;2023-05-10T07:14:59;13.00;99.90
13074;DHT22;6603;47.066;15.396;2023-05-10T07:17:25;13.10;1.00
13074;DHT22;6603;47.066;15.396;2023-05-10T07:19:51;13.20;99.90
13074;DHT22;6603;47.066;15.396;2023-05-10T07:22:17;13.30;1.00
13074;DHT22;6603;47.066;15.396;2023-05-10T07:24:43;13.40;99.90
13074;DHT22;6603;47.066;15.396;2023-05-10T07:27:09;13.70;99.90
13074;DHT22;6603;47.066;15.396;2023-05-10T07:29:36;13.90;99.90
13074;DHT22;6603;47.066;15.396;2023-05-10T07:32:03;13.80;92.60
13074;DHT22;6603;47.066;15.396;2023-05-10T07:34:29;13.70;1.00
13074;DHT22;6603;47.066;15.396;2023-05-10T07:36:58;13.90;1.00
13074;DHT22;6603;47.066;15.396;2023-05-10T07:39:25;14.10;75.80
13074;DHT22;6603;47.066;15.396;2023-05-10T07:41:51;14.30;1.00
13074;DHT22;6603;47.066;15.396;2023-05-10T07:44:17;14.10;1.00
13074;DHT22;6603;47.066;15.396;2023-05-10T07:46:46;14.00;1.00
13074;DHT22;6603;47.066;15.396;2023-05-10T07:49:13;13.90;93.50
13074;DHT22;6603;47.066;15.396;2023-05-10T07:51:39;14.00;1.00
13074;DHT22;6603;47.066;15.396;2023-05-10T07:54:05;13.90;1.00
13074;DHT22;6603;47.066;15.396;2023-05-10T07:56:32;14.10;1.00
13074;DHT22;6603;47.066;15.396;2023-05-10T07:58:59;13.90;99.90
13074;DHT22;6603;47.066;15.396;2023-05-10T08:01:26;14.00;1.00
13074;DHT22;6603;47.066;15.396;2023-05-10T08:03:55;13.90;99.90
13074;DHT22;6603;47.066;15.396;2023-05-10T08:06:21;14.10;1.00
13074;DHT22;6603;47.066;15.396;2023-05-10T08:08:48;14.10;1.00
13074;DHT22;6603;47.066;15.396;2023-05-10T08:11:20;14.30;1.00
13074;DHT22;6603;47.066;15.396;2023-05-10T08:13:48;14.50;99.90
13074;DHT22;6603;47.066;15.396;2023-05-10T09:48:15;18.40;8.20
13074;DHT22;6603;47.066;15.396;2023-05-10T09:50:41;18.10;99.90
13074;DHT22;6603;47.066;15.396;2023-05-10T09:53:07;18.40;99.90
13074;DHT22;6603;47.066;15.396;2023-05-10T09:55:39;18.90;99.90
13074;DHT22;6603;47.066;15.396;2023-05-10T09:58:06;18.90;99.90
13074;DHT22;6603;47.066;15.396;2023-05-10T10:00:37;18.80;91.30
13074;DHT22;6603;47.066;15.396;2023-05-10T10:03:04;18.40;1.00
13074;DHT22;6603;47.066;15.396;2023-05-10T10:05:31;17.90;1.00
13074;DHT22;6603;47.066;15.396;2023-05-10T10:07:58;17.70;1.00
13074;DHT22;6603;47.066;15.396;2023-05-10T10:10:25;17.70;1.00
13074;DHT22;6603;47.066;15.396;2023-05-10T10:12:51;17.60;53.90
13074;DHT22;6603;47.066;15.396;2023-05-10T10:15:18;17.80;92.40
13074;DHT22;6603;47.066;15.396;2023-05-10T10:17:45;18.10;99.90
13074;DHT22;6603;47.066;15.396;2023-05-10T10:20:12;18.40;99.90
13074;DHT22;6603;47.066;15.396;2023-05-10T10:22:38;18.50;99.90
13074;DHT22;6603;47.066;15.396;2023-05-10T10:25:05;18.30;99.90
13074;DHT22;6603;47.066;15.396;2023-05-10T10:36:00;18.20;98.00
13074;DHT22;6603;47.066;15.396;2023-05-10T10:38:59;18.30;35.70
13074;DHT22;6603;47.066;15.396;2023-05-10T10:49:33;18.00;1.00
13074;DHT22;6603;47.066;15.396;2023-05-10T10:52:22;18.10;61.40
13074;DHT22;6603;47.066;15.396;2023-05-10T10:54:53;18.40;99.90
13074;DHT22;6603;47.066;15.396;2023-05-10T10:57:26;18.70;88.20
13074;DHT22;6603;47.066;15.396;2023-05-10T11:00:17;18.70;1.00
13074;DHT22;6603;47.066;15.396;2023-05-10T11:02:44;19.00;99.90
13074;DHT22;6603;47.066;15.396;2023-05-10T11:08:27;19.50;1.00
13074;DHT22;6603;47.066;15.396;2023-05-10T11:11:03;19.80;1.00
13074;DHT22;6603;47.066;15.396;2023-05-10T11:13:30;19.70;1.00
13074;DHT22;6603;47.066;15.396;2023-05-10T11:15:57;19.50;1.00
13074;DHT22;6603;47.066;15.396;2023-05-10T11:18:28;19.60;1.00
13074;DHT22;6603;47.066;15.396;2023-05-10T11:20:58;19.40;1.00
13074;DHT22;6603;47.066;15.396;2023-05-10T11:23:54;19.40;1.00
13074;DHT22;6603;47.066;15.396;2023-05-10T11:26:30;19.00;1.00
13074;DHT22;6603;47.066;15.396;2023-05-10T11:28:57;19.40;1.00
13074;DHT22;6603;47.066;15.396;2023-05-10T11:31:25;19.80;1.00
13074;DHT22;6603;47.066;15.396;2023-05-10T11:33:57;19.80;1.00
13074;DHT22;6603;47.066;15.396;2023-05-10T11:36:26;19.10;1.00
13074;DHT22;6603;47.066;15.396;2023-05-10T11:38:53;19.00;1.00
13074;DHT22;6603;47.066;15.396;2023-05-10T11:41:20;19.40;1.00
13074;DHT22;6603;47.066;15.396;2023-05-10T11:43:56;19.70;1.00
13074;DHT22;6603;47.066;15.396;2023-05-10T11:46:24;19.70;1.00
13074;DHT22;6603;47.066;15.396;2023-05-10T11:48:57;19.50;1.00
13074;DHT22;6603;47.066;15.396;2023-05-10T11:51:26;19.30;1.00
13074;DHT22;6603;47.066;15.396;2023-05-10T11:53:56;19.10;1.00
13074;DHT22;6603;47.066;15.396;2023-05-10T11:56:22;18.80;1.00
13074;DHT22;6603;47.066;15.396;2023-05-10T11:58:54;18.60;41.20
13074;DHT22;6603;47.066;15.396;2023-05-10T12:01:22;18.40;1.00
13074;DHT22;6603;47.066;15.396;2023-05-10T12:03:50;18.20;71.80
13074;DHT22;6603;47.066;15.396;2023-05-10T12:06:20;18.10;99.90
13074;DHT22;6603;47.066;15.396;2023-05-10T12:08:48;17.70;54.90
13074;DHT22;6603;47.066;15.396;2023-05-10T12:11:18;17.50;86.20
13074;DHT22;6603;47.066;15.396;2023-05-10T12:13:45;17.50;99.90
13074;DHT22;6603;47.066;15.396;2023-05-10T12:16:20;17.50;99.90
13074;DHT22;6603;47.066;15.396;2023-05-10T12:18:54;17.50;99.90
13074;DHT22;6603;47.066;15.396;2023-05-10T12:21:21;17.40;99.90
13074;DHT22;6603;47.066;15.396;2023-05-10T12:23:50;17.40;1.00
13074;DHT22;6603;47.066;15.396;2023-05-10T12:26:16;17.30;99.90
13074;DHT22;6603;47.066;15.396;2023-05-10T12:28:43;17.20;99.90
13074;DHT22;6603;47.066;15.396;2023-05-10T12:31:09;17.10;1.00
13074;DHT22;6603;47.066;15.396;2023-05-10T12:33:45;17.00;99.90
13074;DHT22;6603;47.066;15.396;2023-05-10T12:36:13;17.10;1.00
13074;DHT22;6603;47.066;15.396;2023-05-10T12:38:42;17.20;99.90
13074;DHT22;6603;47.066;15.396;2023-05-10T12:41:15;17.30;99.90
13074;DHT22;6603;47.066;15.396;2023-05-10T12:43:42;17.10;99.90
13074;DHT22;6603;47.066;15.396;2023-05-10T12:46:10;17.10;99.90
13074;DHT22;6603;47.066;15.396;2023-05-10T12:48:37;17.30;99.90
13074;DHT22;6603;47.066;15.396;2023-05-10T14:29:38;17.60;1.00
13074;DHT22;6603;47.066;15.396;2023-05-10T14:32:04;17.40;1.00
13074;DHT22;6603;47.066;15.396;2023-05-10T14:34:30;17.40;1.00
13074;DHT22;6603;47.066;15.396;2023-05-10T14:36:56;17.40;99.90
13074;DHT22;6603;47.066;15.396;2023-05-10T14:39:22;17.40;99.90
13074;DHT22;6603;47.066;15.396;2023-05-10T14:41:48;17.40;1.00
13074;DHT22;6603;47.066;15.396;2023-05-10T14:44:14;17.40;99.90
13074;DHT22;6603;47.066;15.396;2023-05-10T14:46:41;17.30;99.90
13074;DHT22;6603;47.066;15.396;2023-05-10T14:49:07;17.30;1.00
13074;DHT22;6603;47.066;15.396;2023-05-10T14:51:33;17.30;99.90
13074;DHT22;6603;47.066;15.396;2023-05-10T14:53:59;17.50;1.00
13074;DHT22;6603;47.066;15.396;2023-05-10T14:56:25;17.60;1.00
13074;DHT22;6603;47.066;15.396;2023-05-10T14:58:51;17.80;99.90
13074;DHT22;6603;47.066;15.396;2023-05-10T15:01:17;17.70;99.90
13074;DHT22;6603;47.066;15.396;2023-05-10T15:03:43;17.90;99.90
13074;DHT22;6603;47.066;15.396;2023-05-10T15:06:09;17.80;99.90
13074;DHT22;6603;47.066;15.396;2023-05-10T15:08:35;17.90;1.00
13074;DHT22;6603;47.066;15.396;2023-05-10T15:11:01;17.90;1.00
13074;DHT22;6603;47.066;15.396;2023-05-10T15:13:27;17.90;99.90
13074;DHT22;6603;47.066;15.396;2023-05-10T15:15:52;18.00;1.00
13074;DHT22;6603;47.066;15.396;2023-05-10T15:18:18;17.90;1.00
13074;DHT22;6603;47.066;15.396;2023-05-10T15:20:44;18.00;99.90
13074;DHT22;6603;47.066;15.396;2023-05-10T15:23:10;17.90;99.90
13074;DHT22;6603;47.066;15.396;2023-05-10T15:25:36;18.10;17.60
13074;DHT22;6603;47.066;15.396;2023-05-10T15:28:03;18.10;1.00
13074;DHT22;6603;47.066;15.396;2023-05-10T15:30:30;18.30;1.00
13074;DHT22;6603;47.066;15.396;2023-05-10T15:32:55;18.20;1.00
13074;DHT22;6603;47.066;15.396;2023-05-10T15:35:22;18.10;1.00
13074;DHT22;6603;47.066;15.396;2023-05-10T15:37:48;18.10;1.00
13074;DHT22;6603;47.066;15.396;2023-05-10T15:40:15;18.20;1.00
13074;DHT22;6603;47.066;15.396;2023-05-10T15:42:40;18.30;88.60
13074;DHT22;6603;47.066;15.396;2023-05-10T15:45:07;18.50;60.70
13074;DHT22;6603;47.066;15.396;2023-05-10T15:47:33;18.70;1.00
13074;DHT22;6603;47.066;15.396;2023-05-10T15:49:59;19.00;1.00
13074;DHT22;6603;47.066;15.396;2023-05-10T15:52:25;19.10;1.00
13074;DHT22;6603;47.066;15.396;2023-05-10T15:54:51;19.60;1.00
13074;DHT22;6603;47.066;15.396;2023-05-10T15:57:17;19.70;1.00
13074;DHT22;6603;47.066;15.396;2023-05-10T15:59:43;19.70;1.00
13074;DHT22;6603;47.066;15.396;2023-05-10T16:02:09;19.70;1.00
13074;DHT22;6603;47.066;15.396;2023-05-10T16:04:37;19.30;1.00
13074;DHT22;6603;47.066;15.396;2023-05-10T16:07:03;19.00;1.00
13074;DHT22;6603;47.066;15.396;2023-05-10T16:09:29;18.40;43.80
13074;DHT22;6603;47.066;15.396;2023-05-10T16:11:55;18.10;85.70
13074;DHT22;6603;47.066;15.396;2023-05-10T16:14:21;18.00;14.30
13074;DHT22;6603;47.066;15.396;2023-05-10T16:16:49;17.70;55.50
13074;DHT22;6603;47.066;15.396;2023-05-10T16:19:14;17.50;99.90
13074;DHT22;6603;47.066;15.396;2023-05-10T16:21:40;17.20;99.90
13074;DHT22;6603;47.066;15.396;2023-05-10T16:24:06;17.10;99.90
13074;DHT22;6603;47.066;15.396;2023-05-10T16:26:32;17.00;1.00
13074;DHT22;6603;47.066;15.396;2023-05-10T16:29:01;16.80;1.00
13074;DHT22;6603;47.066;15.396;2023-05-10T16:31:26;16.70;1.00
13074;DHT22;6603;47.066;15.396;2023-05-10T16:33:52;16.60;1.00
13074;DHT22;6603;47.066;15.396;2023-05-10T16:36:18;16.50;1.00
13074;DHT22;6603;47.066;15.396;2023-05-10T16:38:43;16.50;1.00
13074;DHT22;6603;47.066;15.396;2023-05-10T16:41:09;16.50;1.00
13074;DHT22;6603;47.066;15.396;2023-05-10T16:43:35;16.40;1.00
13074;DHT22;6603;47.066;15.396;2023-05-10T16:46:01;16.40;1.00
13074;DHT22;6603;47.066;15.396;2023-05-10T16:48:27;16.20;1.00
13074;DHT22;6603;47.066;15.396;2023-05-10T16:50:52;16.30;1.00
13074;DHT22;6603;47.066;15.396;2023-05-10T16:53:18;16.30;1.00
13074;DHT22;6603;47.066;15.396;2023-05-10T16:55:44;16.20;1.00
13074;DHT22;6603;47.066;15.396;2023-05-10T16:58:10;16.10;99.90
13074;DHT22;6603;47.066;15.396;2023-05-10T17:00:36;16.00;1.00
13074;DHT22;6603;47.066;15.396;2023-05-10T17:03:02;16.00;1.00
13074;DHT22;6603;47.066;15.396;2023-05-10T17:05:28;16.00;99.90
13074;DHT22;6603;47.066;15.396;2023-05-10T17:07:54;16.00;99.90
13074;DHT22;6603;47.066;15.396;2023-05-10T17:10:20;15.90;99.90
13074;DHT22;6603;47.066;15.396;2023-05-10T17:12:46;16.00;1.00
13074;DHT22;6603;47.066;15.396;2023-05-10T17:15:12;15.90;1.00
13074;DHT22;6603;47.066;15.396;2023-05-10T17:17:38;15.90;93.50
13074;DHT22;6603;47.066;15.396;2023-05-10T17:20:04;15.80;99.90
13074;DHT22;6603;47.066;15.396;2023-05-10T17:22:31;15.80;99.90
13074;DHT22;6603;47.066;15.396;2023-05-10T17:24:57;15.70;99.90
13074;DHT22;6603;47.066;15.396;2023-05-10T17:27:23;15.70;99.90
13074;DHT22;6603;47.066;15.396;2023-05-10T17:29:49;15.70;99.90
13074;DHT22;6603;47.066;15.396;2023-05-10T17:32:15;15.70;99.90
13074;DHT22;6603;47.066;15.396;2023-05-10T17:34:41;15.70;1.00
13074;DHT22;6603;47.066;15.396;2023-05-10T17:37:08;15.60;1.00
13074;DHT22;6603;47.066;15.396;2023-05-10T17:39:34;15.50;1.00
13074;DHT22;6603;47.066;15.396;2023-05-10T17:42:00;15.50;1.00
13074;DHT22;6603;47.066;15.396;2023-05-10T17:44:26;15.50;1.00
13074;DHT22;6603;47.066;15.396;2023-05-10T17:46:51;15.50;1.00
13074;DHT22;6603;47.066;15.396;2023-05-10T17:49:17;15.40;99.90
13074;DHT22;6603;47.066;15.396;2023-05-10T17:51:43;15.40;99.90
13074;DHT22;6603;47.066;15.396;2023-05-10T17:54:13;15.30;99.90
13074;DHT22;6603;47.066;15.396;2023-05-10T17:56:40;15.20;1.00
13074;DHT22;6603;47.066;15.396;2023-05-10T17:59:06;15.20;99.90
13074;DHT22;6603;47.066;15.396;2023-05-10T18:01:32;15.10;1.00
13074;DHT22;6603;47.066;15.396;2023-05-10T18:03:58;15.10;1.00
13074;DHT22;6603;47.066;15.396;2023-05-10T18:06:23;15.10;99.90
13074;DHT22;6603;47.066;15.396;2023-05-10T18:08:49;15.00;99.90
13074;DHT22;6603;47.066;15.396;2023-05-10T18:11:15;15.00;99.90
13074;DHT22;6603;47.066;15.396;2023-05-10T18:13:41;14.90;1.00
13074;DHT22;6603;47.066;15.396;2023-05-10T18:16:07;14.90;99.90
13074;DHT22;6603;47.066;15.396;2023-05-10T18:18:37;14.90;1.00
13074;DHT22;6603;47.066;15.396;2023-05-10T18:21:04;14.90;1.00
13074;DHT22;6603;47.066;15.396;2023-05-10T18:23:30;15.00;1.00
13074;DHT22;6603;47.066;15.396;2023-05-10T18:25:56;15.00;1.00
13074;DHT22;6603;47.066;15.396;2023-05-10T18:28:22;15.00;28.00
13074;DHT22;6603;47.066;15.396;2023-05-10T18:30:49;15.00;99.90
13074;DHT22;6603;47.066;15.396;2023-05-10T18:33:15;15.00;1.00
13074;DHT22;6603;47.066;15.396;2023-05-10T18:35:41;14.90;1.00
13074;DHT22;6603;47.066;15.396;2023-05-10T18:38:07;14.90;1.00
13074;DHT22;6603;47.066;15.396;2023-05-10T18:40:35;14.90;1.00
13074;DHT22;6603;47.066;15.396;2023-05-10T18:43:02;14.80;1.00
13074;DHT22;6603;47.066;15.396;2023-05-10T18:45:29;14.80;1.00
13074;DHT22;6603;47.066;15.396;2023-05-10T18:47:54;14.80;1.00
13074;DHT22;6603;47.066;15.396;2023-05-10T18:50:21;14.70;1.00
13074;DHT22;6603;47.066;15.396;2023-05-10T18:52:47;14.70;1.00
13074;DHT22;6603;47.066;15.396;2023-05-10T18:55:13;14.70;99.90
13074;DHT22;6603;47.066;15.396;2023-05-10T18:57:39;14.70;1.00
13074;DHT22;6603;47.066;15.396;2023-05-10T19:00:07;14.60;1.00
13074;DHT22;6603;47.066;15.396;2023-05-10T19:02:38;14.60;99.90
13074;DHT22;6603;47.066;15.396;2023-05-10T19:05:06;14.60;1.00
13074;DHT22;6603;47.066;15.396;2023-05-10T19:07:32;14.60;99.90
13074;DHT22;6603;47.066;15.396;2023-05-10T19:09:58;14.50;1.00
13074;DHT22;6603;47.066;15.396;2023-05-10T19:12:24;14.50;1.00
13074;DHT22;6603;47.066;15.396;2023-05-10T19:14:50;14.50;22.90
13074;DHT22;6603;47.066;15.396;2023-05-10T19:17:16;14.50;1.00
13074;DHT22;6603;47.066;15.396;2023-05-10T19:19:42;14.40;99.90
13074;DHT22;6603;47.066;15.396;2023-05-10T19:22:08;14.30;1.00
13074;DHT22;6603;47.066;15.396;2023-05-10T19:24:33;14.20;1.00
13074;DHT22;6603;47.066;15.396;2023-05-10T19:27:00;14.10;1.00
13074;DHT22;6603;47.066;15.396;2023-05-10T19:29:26;14.20;99.90
13074;DHT22;6603;47.066;15.396;2023-05-10T19:31:53;14.20;99.90
13074;DHT22;6603;47.066;15.396;2023-05-10T19:34:19;14.10;1.00
13074;DHT22;6603;47.066;15.396;2023-05-10T19:36:45;14.10;1.00